sensor_id;sensor_type;location;lat;lon;timestamp;pressure;altitude;pressure_sealevel;temperature;humidity
30110;BME280;14965;50.660;13.226;2023-03-19T00:00:16;94683.19;;;6.78;61.09
30110;BME280;14965;50.660;13.226;2023-03-19T00:02:42;94689.56;;;6.71;61.91
30110;BME280;14965;50.660;13.226;2023-03-19T00:05:08;94688.16;;;6.63;62.95
30110;BME280;14965;50.660;13.226;2023-03-19T00:07:34;94703.59;;;6.53;63.62
30110;BME280;14965;50.660;13.226;2023-03-19T00:10:00;94698.63;;;6.44;63.97
30110;BME280;14965;50.660;13.226;2023-03-19T00:12:26;94700.75;;;6.33;64.37
30110;BME280;14965;50.660;13.226;2023-03-19T00:14:53;94709.09;;;6.26;64.20
30110;BME280;14965;50.660;13.226;2023-03-19T00:17:19;94691.91;;;6.22;64.76
30110;BME280;14965;50.660;13.226;2023-03-19T00:19:45;94691.97;;;6.18;64.33
30110;BME280;14965;50.660;13.226;2023-03-19T00:22:11;94687.88;;;6.03;65.53
30110;BME280;14965;50.660;13.226;2023-03-19T00:24:37;94700.13;;;5.95;65.28
30110;BME280;14965;50.660;13.226;2023-03-19T00:27:03;94699.44;;;5.87;65.92
30110;BME280;14965;50.660;13.226;2023-03-19T00:29:29;94702.22;;;5.84;66.52
30110;BME280;14965;50.660;13.226;2023-03-19T00:31:56;94706.97;;;5.80;66.60
30110;BME280;14965;50.660;13.226;2023-03-19T00:34:22;94704.22;;;5.80;66.83
30110;BME280;14965;50.660;13.226;2023-03-19T00:36:48;94706.63;;;5.78;67.54
30110;BME280;14965;50.660;13.226;2023-03-19T00:39:14;94703.88;;;5.78;67.95
30110;BME280;14965;50.660;13.226;2023-03-19T00:41:40;94704.22;;;5.80;67.50
30110;BME280;14965;50.660;13.226;2023-03-19T00:44:06;94704.19;;;5.83;67.59
30110;BME280;14965;50.660;13.226;2023-03-19T00:46:32;94707.28;;;5.85;67.42
30110;BME280;14965;50.660;13.226;2023-03-19T00:48:59;94700.59;;;5.90;66.88
30110;BME280;14965;50.660;13.226;2023-03-19T00:51:25;94693.00;;;6.01;65.75
30110;BME280;14965;50.660;13.226;2023-03-19T00:53:51;94693.63;;;6.12;65.33
30110;BME280;14965;50.660;13.226;2023-03-19T00:56:18;94686.38;;;6.26;64.13
30110;BME280;14965;50.660;13.226;2023-03-19T00:58:45;94677.56;;;6.38;63.62
30110;BME280;14965;50.660;13.226;2023-03-19T01:01:14;94675.06;;;6.47;63.24
30110;BME280;14965;50.660;13.226;2023-03-19T01:03:41;94663.63;;;6.52;63.04
30110;BME280;14965;50.660;13.226;2023-03-19T01:06:09;94661.59;;;6.56;62.26
30110;BME280;14965;50.660;13.226;2023-03-19T01:08:35;94663.56;;;6.56;62.31
30110;BME280;14965;50.660;13.226;2023-03-19T01:11:06;94666.44;;;6.48;62.79
30110;BME280;14965;50.660;13.226;2023-03-19T01:13:32;94662.66;;;6.39;63.29
30110;BME280;14965;50.660;13.226;2023-03-19T01:15:58;94653.00;;;6.31;63.99
30110;BME280;14965;50.660;13.226;2023-03-19T01:18:24;94658.72;;;6.16;64.53
30110;BME280;14965;50.660;13.226;2023-03-19T01:20:50;94662.75;;;6.08;64.96
30110;BME280;14965;50.660;13.226;2023-03-19T01:23:18;94659.28;;;6.04;64.77
30110;BME280;14965;50.660;13.226;2023-03-19T01:25:43;94665.13;;;6.06;65.31
30110;BME280;14965;50.660;13.226;2023-03-19T01:28:09;94654.16;;;6.06;65.63
30110;BME280;14965;50.660;13.226;2023-03-19T01:30:35;94671.84;;;6.02;65.89
30110;BME280;14965;50.660;13.226;2023-03-19T01:33:01;94667.59;;;5.97;66.31
30110;BME280;14965;50.660;13.226;2023-03-19T01:35:27;94663.34;;;5.92;66.69
30110;BME280;14965;50.660;13.226;2023-03-19T01:37:53;94662.22;;;5.90;66.82
30110;BME280;14965;50.660;13.226;2023-03-19T01:40:20;94661.06;;;5.87;67.80
30110;BME280;14965;50.660;13.226;2023-03-19T01:42:55;94669.31;;;5.84;67.52
30110;BME280;14965;50.660;13.226;2023-03-19T01:45:31;94666.63;;;5.80;67.80
30110;BME280;14965;50.660;13.226;2023-03-19T01:47:58;94663.53;;;5.78;67.99
30110;BME280;14965;50.660;13.226;2023-03-19T01:50:30;94659.69;;;5.72;68.51
30110;BME280;14965;50.660;13.226;2023-03-19T01:52:59;94659.84;;;5.61;68.75
30110;BME280;14965;50.660;13.226;2023-03-19T01:55:27;94657.88;;;5.62;68.61
30110;BME280;14965;50.660;13.226;2023-03-19T01:57:52;94661.03;;;5.60;68.93
30110;BME280;14965;50.660;13.226;2023-03-19T02:00:19;94653.66;;;5.57;68.51
30110;BME280;14965;50.660;13.226;2023-03-19T02:02:48;94656.38;;;5.57;68.65
30110;BME280;14965;50.660;13.226;2023-03-19T02:05:19;94652.50;;;5.55;69.16
30110;BME280;14965;50.660;13.226;2023-03-19T02:07:45;94656.00;;;5.55;69.30
30110;BME280;14965;50.660;13.226;2023-03-19T02:10:15;94662.59;;;5.61;68.98
30110;BME280;14965;50.660;13.226;2023-03-19T02:12:43;94662.13;;;5.66;68.88
30110;BME280;14965;50.660;13.226;2023-03-19T02:15:10;94663.28;;;5.69;69.15
30110;BME280;14965;50.660;13.226;2023-03-19T02:17:36;94673.38;;;5.72;68.47
30110;BME280;14965;50.660;13.226;2023-03-19T02:20:09;94662.81;;;5.74;68.77
30110;BME280;14965;50.660;13.226;2023-03-19T02:22:45;94651.84;;;5.74;68.58
30110;BME280;14965;50.660;13.226;2023-03-19T02:25:23;94661.28;;;5.73;69.09
30110;BME280;14965;50.660;13.226;2023-03-19T02:27:51;94663.63;;;5.71;68.75
30110;BME280;14965;50.660;13.226;2023-03-19T02:30:20;94653.56;;;5.64;68.67
30110;BME280;14965;50.660;13.226;2023-03-19T02:32:46;94661.81;;;5.61;68.46
30110;BME280;14965;50.660;13.226;2023-03-19T02:35:11;94668.56;;;5.53;68.75
30110;BME280;14965;50.660;13.226;2023-03-19T02:37:37;94667.84;;;5.48;69.43
30110;BME280;14965;50.660;13.226;2023-03-19T02:40:08;94670.19;;;5.46;69.64
30110;BME280;14965;50.660;13.226;2023-03-19T02:42:35;94668.34;;;5.40;69.72
30110;BME280;14965;50.660;13.226;2023-03-19T02:45:06;94673.09;;;5.36;70.59
30110;BME280;14965;50.660;13.226;2023-03-19T02:47:32;94672.69;;;5.34;70.77
30110;BME280;14965;50.660;13.226;2023-03-19T02:49:58;94684.84;;;5.33;71.14
30110;BME280;14965;50.660;13.226;2023-03-19T02:52:24;94679.78;;;5.31;71.56
30110;BME280;14965;50.660;13.226;2023-03-19T02:54:50;94670.78;;;5.31;71.17
30110;BME280;14965;50.660;13.226;2023-03-19T02:57:16;94674.72;;;5.30;71.19
30110;BME280;14965;50.660;13.226;2023-03-19T02:59:42;94672.38;;;5.28;71.74
30110;BME280;14965;50.660;13.226;2023-03-19T03:02:10;94673.63;;;5.23;71.62
30110;BME280;14965;50.660;13.226;2023-03-19T03:04:35;94673.66;;;5.20;71.85
30110;BME280;14965;50.660;13.226;2023-03-19T03:07:02;94691.66;;;5.17;72.10
30110;BME280;14965;50.660;13.226;2023-03-19T03:09:28;94675.69;;;5.12;72.10
30110;BME280;14965;50.660;13.226;2023-03-19T03:11:54;94671.78;;;5.10;72.58
30110;BME280;14965;50.660;13.226;2023-03-19T03:14:20;94676.13;;;5.07;72.58
30110;BME280;14965;50.660;13.226;2023-03-19T03:16:46;94676.13;;;5.07;72.46
30110;BME280;14965;50.660;13.226;2023-03-19T03:19:13;94680.81;;;5.10;71.88
30110;BME280;14965;50.660;13.226;2023-03-19T03:21:39;94679.19;;;5.13;71.92
30110;BME280;14965;50.660;13.226;2023-03-19T03:24:06;94678.38;;;5.16;70.87
30110;BME280;14965;50.660;13.226;2023-03-19T03:26:32;94677.59;;;5.19;70.85
30110;BME280;14965;50.660;13.226;2023-03-19T03:28:58;94679.91;;;5.20;71.17
30110;BME280;14965;50.660;13.226;2023-03-19T03:31:24;94672.09;;;5.19;71.37
30110;BME280;14965;50.660;13.226;2023-03-19T03:33:50;94665.06;;;5.18;70.68
30110;BME280;14965;50.660;13.226;2023-03-19T03:36:17;94674.41;;;5.20;70.68
30110;BME280;14965;50.660;13.226;2023-03-19T03:38:44;94678.72;;;5.21;70.69
30110;BME280;14965;50.660;13.226;2023-03-19T03:41:10;94679.91;;;5.20;70.83
30110;BME280;14965;50.660;13.226;2023-03-19T03:43:36;94686.56;;;5.19;71.44
30110;BME280;14965;50.660;13.226;2023-03-19T03:46:02;94684.22;;;5.18;71.33
30110;BME280;14965;50.660;13.226;2023-03-19T03:48:28;94681.53;;;5.14;71.65
30110;BME280;14965;50.660;13.226;2023-03-19T03:50:54;94680.38;;;5.12;71.47
30110;BME280;14965;50.660;13.226;2023-03-19T03:53:21;94677.22;;;5.13;71.27
30110;BME280;14965;50.660;13.226;2023-03-19T03:55:48;94668.22;;;5.16;70.94
30110;BME280;14965;50.660;13.226;2023-03-19T03:58:14;94672.41;;;5.24;70.61
30110;BME280;14965;50.660;13.226;2023-03-19T04:00:40;94674.25;;;5.35;69.94
30110;BME280;14965;50.660;13.226;2023-03-19T04:03:05;94671.03;;;5.43;69.50
30110;BME280;14965;50.660;13.226;2023-03-19T04:05:32;94674.09;;;5.49;69.37
30110;BME280;14965;50.660;13.226;2023-03-19T04:07:58;94677.13;;;5.55;69.16
30110;BME280;14965;50.660;13.226;2023-03-19T04:10:25;94669.66;;;5.59;69.00
30110;BME280;14965;50.660;13.226;2023-03-19T04:12:51;94672.72;;;5.64;68.88
30110;BME280;14965;50.660;13.226;2023-03-19T04:15:17;94683.63;;;5.68;68.58
30110;BME280;14965;50.660;13.226;2023-03-19T04:17:43;94682.03;;;5.70;68.33
30110;BME280;14965;50.660;13.226;2023-03-19T04:20:10;94678.13;;;5.68;68.70
30110;BME280;14965;50.660;13.226;2023-03-19T04:22:36;94675.47;;;5.64;68.46
30110;BME280;14965;50.660;13.226;2023-03-19T04:25:03;94682.16;;;5.60;68.35
30110;BME280;14965;50.660;13.226;2023-03-19T04:27:30;94677.91;;;5.55;68.51
30110;BME280;14965;50.660;13.226;2023-03-19T04:29:56;94680.34;;;5.49;69.03
30110;BME280;14965;50.660;13.226;2023-03-19T04:32:22;94691.75;;;5.44;69.18
30110;BME280;14965;50.660;13.226;2023-03-19T04:34:48;94686.34;;;5.37;70.27
30110;BME280;14965;50.660;13.226;2023-03-19T04:37:14;94685.28;;;5.31;70.25
30110;BME280;14965;50.660;13.226;2023-03-19T04:39:40;94689.19;;;5.27;70.03
30110;BME280;14965;50.660;13.226;2023-03-19T04:42:06;94673.22;;;5.21;70.13
30110;BME280;14965;50.660;13.226;2023-03-19T04:44:33;94684.63;;;5.16;70.25
30110;BME280;14965;50.660;13.226;2023-03-19T04:46:59;94677.66;;;5.12;70.87
30110;BME280;14965;50.660;13.226;2023-03-19T04:49:25;94685.13;;;5.08;70.87
30110;BME280;14965;50.660;13.226;2023-03-19T04:51:51;94690.63;;;5.04;70.88
30110;BME280;14965;50.660;13.226;2023-03-19T04:54:17;94695.34;;;5.04;71.59
30110;BME280;14965;50.660;13.226;2023-03-19T04:56:43;94691.06;;;5.03;71.06
30110;BME280;14965;50.660;13.226;2023-03-19T04:59:09;94694.59;;;4.99;71.23
30110;BME280;14965;50.660;13.226;2023-03-19T05:01:36;94689.56;;;4.94;71.24
30110;BME280;14965;50.660;13.226;2023-03-19T05:04:02;94686.84;;;4.91;71.28
30110;BME280;14965;50.660;13.226;2023-03-19T05:06:28;94686.13;;;4.87;71.99
30110;BME280;14965;50.660;13.226;2023-03-19T05:08:54;94688.53;;;4.81;72.35
30110;BME280;14965;50.660;13.226;2023-03-19T05:11:20;94692.88;;;4.75;72.89
30110;BME280;14965;50.660;13.226;2023-03-19T05:13:46;94690.56;;;4.73;72.50
30110;BME280;14965;50.660;13.226;2023-03-19T05:16:12;94691.31;;;4.74;72.47
30110;BME280;14965;50.660;13.226;2023-03-19T05:18:39;94687.41;;;4.75;72.36
30110;BME280;14965;50.660;13.226;2023-03-19T05:21:52;94702.63;;;4.76;72.28
30110;BME280;14965;50.660;13.226;2023-03-19T05:33:05;94703.81;;;4.75;73.15
30110;BME280;14965;50.660;13.226;2023-03-19T05:39:37;94702.28;;;5.12;71.45
30110;BME280;14965;50.660;13.226;2023-03-19T05:46:07;94700.81;;;5.38;70.55
30110;BME280;14965;50.660;13.226;2023-03-19T05:49:25;94701.09;;;5.47;69.70
30110;BME280;14965;50.660;13.226;2023-03-19T05:52:13;94699.88;;;5.52;69.44
30110;BME280;14965;50.660;13.226;2023-03-19T05:54:50;94706.81;;;5.60;69.18
30110;BME280;14965;50.660;13.226;2023-03-19T05:57:41;94699.72;;;5.66;69.24
30110;BME280;14965;50.660;13.226;2023-03-19T06:00:13;94697.66;;;5.73;69.12
30110;BME280;14965;50.660;13.226;2023-03-19T06:03:08;94699.47;;;5.84;68.54
30110;BME280;14965;50.660;13.226;2023-03-19T06:05:54;94706.41;;;5.95;68.43
30110;BME280;14965;50.660;13.226;2023-03-19T06:08:22;94710.94;;;6.06;67.87
30110;BME280;14965;50.660;13.226;2023-03-19T06:10:53;94712.00;;;6.15;68.17
30110;BME280;14965;50.660;13.226;2023-03-19T06:13:31;94718.09;;;6.27;67.30
30110;BME280;14965;50.660;13.226;2023-03-19T06:16:24;94721.94;;;6.33;67.28
30110;BME280;14965;50.660;13.226;2023-03-19T06:18:56;94713.59;;;6.40;66.95
30110;BME280;14965;50.660;13.226;2023-03-19T06:21:43;94717.00;;;6.47;66.80
30110;BME280;14965;50.660;13.226;2023-03-19T06:28:00;94721.78;;;6.67;66.75
30110;BME280;14965;50.660;13.226;2023-03-19T06:30:48;94724.44;;;6.74;66.53
30110;BME280;14965;50.660;13.226;2023-03-19T06:33:18;94724.66;;;6.83;66.57
30110;BME280;14965;50.660;13.226;2023-03-19T06:36:14;94726.88;;;6.92;66.34
30110;BME280;14965;50.660;13.226;2023-03-19T06:39:03;94720.41;;;7.02;65.71
30110;BME280;14965;50.660;13.226;2023-03-19T06:41:49;94726.50;;;7.13;65.18
30110;BME280;14965;50.660;13.226;2023-03-19T06:44:24;94725.59;;;7.20;64.61
30110;BME280;14965;50.660;13.226;2023-03-19T06:46:50;94725.44;;;7.27;64.27
30110;BME280;14965;50.660;13.226;2023-03-19T06:49:25;94724.13;;;7.35;64.25
30110;BME280;14965;50.660;13.226;2023-03-19T06:51:51;94728.28;;;7.43;64.12
30110;BME280;14965;50.660;13.226;2023-03-19T06:54:27;94722.59;;;7.54;63.67
30110;BME280;14965;50.660;13.226;2023-03-19T06:57:03;94725.50;;;7.67;62.80
30110;BME280;14965;50.660;13.226;2023-03-19T06:59:33;94730.78;;;7.78;62.36
30110;BME280;14965;50.660;13.226;2023-03-19T07:02:08;94732.88;;;7.90;62.26
30110;BME280;14965;50.660;13.226;2023-03-19T07:04:58;94742.13;;;7.99;62.18
30110;BME280;14965;50.660;13.226;2023-03-19T07:07:29;94737.25;;;8.07;62.05
30110;BME280;14965;50.660;13.226;2023-03-19T07:10:11;94743.72;;;8.17;61.58
30110;BME280;14965;50.660;13.226;2023-03-19T07:12:40;94736.00;;;8.28;61.08
30110;BME280;14965;50.660;13.226;2023-03-19T07:15:12;94729.88;;;8.40;60.50
30110;BME280;14965;50.660;13.226;2023-03-19T07:17:59;94735.88;;;8.52;58.83
30110;BME280;14965;50.660;13.226;2023-03-19T07:20:51;94740.72;;;8.64;59.37
30110;BME280;14965;50.660;13.226;2023-03-19T07:23:25;94741.59;;;8.77;58.25
30110;BME280;14965;50.660;13.226;2023-03-19T07:25:53;94737.63;;;8.94;58.91
30110;BME280;14965;50.660;13.226;2023-03-19T07:28:23;94734.09;;;9.10;58.42
30110;BME280;14965;50.660;13.226;2023-03-19T07:30:56;94732.84;;;9.28;58.32
30110;BME280;14965;50.660;13.226;2023-03-19T07:34:15;94739.56;;;9.43;57.99
30110;BME280;14965;50.660;13.226;2023-03-19T07:36:31;94736.25;;;9.48;57.27
30110;BME280;14965;50.660;13.226;2023-03-19T07:38:59;94741.59;;;9.55;57.61
30110;BME280;14965;50.660;13.226;2023-03-19T07:41:26;94740.63;;;9.62;57.51
30110;BME280;14965;50.660;13.226;2023-03-19T07:44:03;94736.47;;;9.70;57.61
30110;BME280;14965;50.660;13.226;2023-03-19T07:46:33;94740.13;;;9.80;57.45
30110;BME280;14965;50.660;13.226;2023-03-19T07:49:01;94738.19;;;9.93;56.96
30110;BME280;14965;50.660;13.226;2023-03-19T07:51:28;94741.44;;;10.04;56.95
30110;BME280;14965;50.660;13.226;2023-03-19T07:53:56;94748.19;;;10.16;56.62
30110;BME280;14965;50.660;13.226;2023-03-19T07:56:22;94750.66;;;10.27;56.50
30110;BME280;14965;50.660;13.226;2023-03-19T07:58:48;94747.13;;;10.39;56.61
30110;BME280;14965;50.660;13.226;2023-03-19T08:01:14;94740.94;;;10.47;56.62
30110;BME280;14965;50.660;13.226;2023-03-19T08:03:42;94741.06;;;10.57;56.55
30110;BME280;14965;50.660;13.226;2023-03-19T08:06:08;94744.72;;;10.66;56.30
30110;BME280;14965;50.660;13.226;2023-03-19T08:08:35;94750.34;;;10.76;56.01
30110;BME280;14965;50.660;13.226;2023-03-19T08:11:01;94747.81;;;10.81;55.74
30110;BME280;14965;50.660;13.226;2023-03-19T08:13:28;94754.75;;;10.86;55.49
30110;BME280;14965;50.660;13.226;2023-03-19T08:15:54;94754.53;;;10.93;55.20
30110;BME280;14965;50.660;13.226;2023-03-19T08:18:20;94750.66;;;11.03;55.06
30110;BME280;14965;50.660;13.226;2023-03-19T08:20:48;94761.56;;;11.19;54.83
30110;BME280;14965;50.660;13.226;2023-03-19T08:23:15;94757.13;;;11.35;54.95
30110;BME280;14965;50.660;13.226;2023-03-19T08:25:41;94755.66;;;11.43;54.13
30110;BME280;14965;50.660;13.226;2023-03-19T08:28:09;94764.81;;;11.53;53.68
30110;BME280;14965;50.660;13.226;2023-03-19T08:30:44;94758.09;;;11.54;53.35
30110;BME280;14965;50.660;13.226;2023-03-19T08:33:10;94765.81;;;11.59;53.73
30110;BME280;14965;50.660;13.226;2023-03-19T08:35:36;94755.00;;;11.73;53.67
30110;BME280;14965;50.660;13.226;2023-03-19T08:38:03;94750.72;;;11.94;52.98
30110;BME280;14965;50.660;13.226;2023-03-19T08:40:29;94750.41;;;12.14;53.00
30110;BME280;14965;50.660;13.226;2023-03-19T08:42:56;94755.41;;;12.29;52.74
30110;BME280;14965;50.660;13.226;2023-03-19T08:45:22;94752.09;;;12.34;53.07
30110;BME280;14965;50.660;13.226;2023-03-19T08:47:49;94758.56;;;12.40;52.82
30110;BME280;14965;50.660;13.226;2023-03-19T08:50:16;94761.97;;;12.44;53.26
30110;BME280;14965;50.660;13.226;2023-03-19T09:05:17;94759.66;;;12.20;53.20
30110;BME280;14965;50.660;13.226;2023-03-19T09:06:18;94758.59;;;12.18;53.30
30110;BME280;14965;50.660;13.226;2023-03-19T09:08:47;94756.78;;;12.24;53.36
30110;BME280;14965;50.660;13.226;2023-03-19T09:11:13;94763.72;;;12.29;53.15
30110;BME280;14965;50.660;13.226;2023-03-19T09:13:42;94759.66;;;12.42;53.04
30110;BME280;14965;50.660;13.226;2023-03-19T09:16:08;94751.78;;;12.63;52.92
30110;BME280;14965;50.660;13.226;2023-03-19T09:18:36;94754.94;;;12.83;52.26
30110;BME280;14965;50.660;13.226;2023-03-19T09:21:02;94755.28;;;12.94;50.85
30110;BME280;14965;50.660;13.226;2023-03-19T09:23:28;94757.03;;;13.10;50.37
30110;BME280;14965;50.660;13.226;2023-03-19T09:25:55;94751.09;;;13.30;51.04
30110;BME280;14965;50.660;13.226;2023-03-19T09:28:21;94765.44;;;13.38;50.74
30110;BME280;14965;50.660;13.226;2023-03-19T09:30:49;94755.59;;;13.46;50.37
30110;BME280;14965;50.660;13.226;2023-03-19T09:33:19;94747.72;;;13.44;49.96
30110;BME280;14965;50.660;13.226;2023-03-19T09:35:51;94743.56;;;13.58;50.72
30110;BME280;14965;50.660;13.226;2023-03-19T09:38:18;94751.75;;;13.53;50.21
30110;BME280;14965;50.660;13.226;2023-03-19T09:40:47;94752.94;;;13.33;50.91
30110;BME280;14965;50.660;13.226;2023-03-19T09:43:40;94747.38;;;13.24;50.86
30110;BME280;14965;50.660;13.226;2023-03-19T09:46:15;94741.84;;;13.33;50.63
30110;BME280;14965;50.660;13.226;2023-03-19T09:48:48;94750.34;;;13.39;51.14
30110;BME280;14965;50.660;13.226;2023-03-19T09:51:26;94748.16;;;13.25;50.94
30110;BME280;14965;50.660;13.226;2023-03-19T09:53:57;94742.84;;;13.08;51.35
30110;BME280;14965;50.660;13.226;2023-03-19T09:56:25;94745.44;;;13.03;52.36
30110;BME280;14965;50.660;13.226;2023-03-19T09:58:51;94742.06;;;13.08;52.23
30110;BME280;14965;50.660;13.226;2023-03-19T10:01:25;94748.72;;;13.19;52.16
30110;BME280;14965;50.660;13.226;2023-03-19T10:04:24;94751.13;;;13.39;51.38
30110;BME280;14965;50.660;13.226;2023-03-19T10:07:05;94754.19;;;13.41;51.33
30110;BME280;14965;50.660;13.226;2023-03-19T10:09:51;94754.03;;;13.54;51.23
30110;BME280;14965;50.660;13.226;2023-03-19T10:12:46;94757.28;;;13.53;49.95
30110;BME280;14965;50.660;13.226;2023-03-19T10:15:21;94749.75;;;13.53;50.74
30110;BME280;14965;50.660;13.226;2023-03-19T10:17:57;94749.13;;;13.49;50.69
30110;BME280;14965;50.660;13.226;2023-03-19T10:20:34;94744.94;;;13.44;50.91
30110;BME280;14965;50.660;13.226;2023-03-19T10:23:19;94755.13;;;13.38;51.78
30110;BME280;14965;50.660;13.226;2023-03-19T10:25:53;94749.72;;;13.35;51.93
30110;BME280;14965;50.660;13.226;2023-03-19T10:28:20;94753.13;;;13.48;51.69
30110;BME280;14965;50.660;13.226;2023-03-19T10:30:54;94752.22;;;13.60;51.09
30110;BME280;14965;50.660;13.226;2023-03-19T10:33:25;94748.38;;;13.76;50.52
30110;BME280;14965;50.660;13.226;2023-03-19T10:36:04;94742.03;;;13.94;49.90
30110;BME280;14965;50.660;13.226;2023-03-19T10:38:39;94737.09;;;14.07;51.05
30110;BME280;14965;50.660;13.226;2023-03-19T10:41:27;94740.47;;;14.20;50.12
30110;BME280;14965;50.660;13.226;2023-03-19T10:44:02;94739.06;;;14.34;49.48
30110;BME280;14965;50.660;13.226;2023-03-19T10:49:23;94748.44;;;14.46;49.90
30110;BME280;14965;50.660;13.226;2023-03-19T10:51:50;94750.00;;;14.47;48.84
30110;BME280;14965;50.660;13.226;2023-03-19T10:54:23;94738.56;;;14.45;49.85
30110;BME280;14965;50.660;13.226;2023-03-19T10:56:54;94745.38;;;14.44;50.69
30110;BME280;14965;50.660;13.226;2023-03-19T10:59:24;94735.78;;;14.45;51.09
30110;BME280;14965;50.660;13.226;2023-03-19T11:01:57;94746.13;;;14.44;50.63
30110;BME280;14965;50.660;13.226;2023-03-19T11:04:25;94747.09;;;14.51;50.32
30110;BME280;14965;50.660;13.226;2023-03-19T11:06:53;94740.59;;;14.54;51.62
30110;BME280;14965;50.660;13.226;2023-03-19T11:09:30;94740.41;;;14.48;51.53
30110;BME280;14965;50.660;13.226;2023-03-19T11:12:06;94744.44;;;14.47;51.38
30110;BME280;14965;50.660;13.226;2023-03-19T11:14:41;94734.38;;;14.59;50.75
30110;BME280;14965;50.660;13.226;2023-03-19T11:17:20;94749.19;;;14.65;51.49
30110;BME280;14965;50.660;13.226;2023-03-19T11:19:51;94750.91;;;14.62;50.68
30110;BME280;14965;50.660;13.226;2023-03-19T11:22:22;94745.19;;;14.66;49.85
30110;BME280;14965;50.660;13.226;2023-03-19T11:24:54;94747.31;;;14.71;51.26
30110;BME280;14965;50.660;13.226;2023-03-19T11:27:30;94748.13;;;14.72;50.32
30110;BME280;14965;50.660;13.226;2023-03-19T11:29:56;94752.63;;;14.60;49.79
30110;BME280;14965;50.660;13.226;2023-03-19T11:33:04;94749.88;;;14.51;50.30
30110;BME280;14965;50.660;13.226;2023-03-19T11:35:37;94743.69;;;14.47;50.47
30110;BME280;14965;50.660;13.226;2023-03-19T11:38:17;94744.59;;;14.43;50.24
30110;BME280;14965;50.660;13.226;2023-03-19T11:41:01;94739.38;;;14.36;49.36
30110;BME280;14965;50.660;13.226;2023-03-19T11:43:43;94753.13;;;14.31;50.94
30110;BME280;14965;50.660;13.226;2023-03-19T11:46:28;94748.19;;;14.16;51.51
30110;BME280;14965;50.660;13.226;2023-03-19T11:49:26;94747.41;;;14.16;51.49
30110;BME280;14965;50.660;13.226;2023-03-19T11:52:05;94744.47;;;14.29;51.76
30110;BME280;14965;50.660;13.226;2023-03-19T11:54:48;94747.72;;;14.27;50.90
30110;BME280;14965;50.660;13.226;2023-03-19T11:57:28;94752.50;;;14.27;51.59
30110;BME280;14965;50.660;13.226;2023-03-19T12:00:22;94743.84;;;14.25;51.57
30110;BME280;14965;50.660;13.226;2023-03-19T12:06:18;94750.97;;;14.26;52.38
30110;BME280;14965;50.660;13.226;2023-03-19T12:08:55;94747.69;;;14.36;52.48
30110;BME280;14965;50.660;13.226;2023-03-19T12:11:35;94750.47;;;14.36;51.83
30110;BME280;14965;50.660;13.226;2023-03-19T12:14:31;94737.97;;;14.50;52.16
30110;BME280;14965;50.660;13.226;2023-03-19T12:17:16;94745.22;;;14.48;51.83
30110;BME280;14965;50.660;13.226;2023-03-19T12:20:12;94747.22;;;14.38;50.55
30110;BME280;14965;50.660;13.226;2023-03-19T12:22:59;94749.75;;;14.17;49.97
30110;BME280;14965;50.660;13.226;2023-03-19T12:25:54;94753.00;;;14.07;50.68
30110;BME280;14965;50.660;13.226;2023-03-19T12:28:27;94764.25;;;13.94;50.77
30110;BME280;14965;50.660;13.226;2023-03-19T12:34:20;94754.69;;;13.77;52.05
30110;BME280;14965;50.660;13.226;2023-03-19T12:36:54;94766.09;;;13.79;52.39
30110;BME280;14965;50.660;13.226;2023-03-19T12:39:28;94758.88;;;13.72;53.07
30110;BME280;14965;50.660;13.226;2023-03-19T12:41:58;94757.63;;;13.73;52.88
30110;BME280;14965;50.660;13.226;2023-03-19T12:44:32;94759.00;;;13.78;53.69
30110;BME280;14965;50.660;13.226;2023-03-19T12:47:06;94757.31;;;13.80;53.33
30110;BME280;14965;50.660;13.226;2023-03-19T12:49:40;94755.63;;;13.74;53.54
30110;BME280;14965;50.660;13.226;2023-03-19T12:52:18;94757.91;;;13.75;53.94
30110;BME280;14965;50.660;13.226;2023-03-19T12:54:53;94753.94;;;13.85;53.18
30110;BME280;14965;50.660;13.226;2023-03-19T12:57:31;94755.63;;;13.74;52.47
30110;BME280;14965;50.660;13.226;2023-03-19T13:00:06;94767.81;;;13.67;53.23
30110;BME280;14965;50.660;13.226;2023-03-19T13:02:40;94766.25;;;13.66;52.99
30110;BME280;14965;50.660;13.226;2023-03-19T13:05:18;94765.03;;;13.67;53.80
30110;BME280;14965;50.660;13.226;2023-03-19T13:07:56;94759.00;;;13.68;53.82
30110;BME280;14965;50.660;13.226;2023-03-19T13:10:26;94764.25;;;13.76;53.29
30110;BME280;14965;50.660;13.226;2023-03-19T13:12:54;94757.19;;;13.84;53.30
30110;BME280;14965;50.660;13.226;2023-03-19T13:15:27;94764.56;;;13.87;53.73
30110;BME280;14965;50.660;13.226;2023-03-19T13:18:11;94764.56;;;13.87;53.93
30110;BME280;14965;50.660;13.226;2023-03-19T13:20:57;94760.72;;;13.93;54.45
30110;BME280;14965;50.660;13.226;2023-03-19T13:23:30;94761.31;;;13.70;54.68
30110;BME280;14965;50.660;13.226;2023-03-19T13:25:59;94769.63;;;13.61;56.06
30110;BME280;14965;50.660;13.226;2023-03-19T13:28:29;94759.94;;;13.56;56.76
30110;BME280;14965;50.660;13.226;2023-03-19T13:31:01;94760.22;;;13.49;57.07
30110;BME280;14965;50.660;13.226;2023-03-19T13:33:29;94761.75;;;13.50;58.07
30110;BME280;14965;50.660;13.226;2023-03-19T13:36:00;94764.66;;;13.37;58.96
30110;BME280;14965;50.660;13.226;2023-03-19T13:38:37;94764.28;;;13.17;60.40
30110;BME280;14965;50.660;13.226;2023-03-19T13:41:05;94764.84;;;13.03;61.46
30110;BME280;14965;50.660;13.226;2023-03-19T13:43:55;94764.19;;;12.89;62.39
30110;BME280;14965;50.660;13.226;2023-03-19T13:46:40;94768.94;;;12.80;64.37
30110;BME280;14965;50.660;13.226;2023-03-19T13:49:25;94772.38;;;12.62;65.55
30110;BME280;14965;50.660;13.226;2023-03-19T13:51:55;94772.59;;;12.45;66.08
30110;BME280;14965;50.660;13.226;2023-03-19T13:54:34;94775.31;;;12.36;67.93
30110;BME280;14965;50.660;13.226;2023-03-19T13:57:21;94773.97;;;12.19;67.58
30110;BME280;14965;50.660;13.226;2023-03-19T14:00:56;94769.66;;;12.18;68.67